createdAt,value
2018-09-15T00:00:42.355Z,15.52
2018-09-15T00:03:10.733Z,15.55
2018-09-15T00:05:39.176Z,15.54
2018-09-15T00:08:07.545Z,15.53
2018-09-15T00:10:35.922Z,15.54
2018-09-15T00:13:04.327Z,15.52
2018-09-15T00:15:32.718Z,15.54
2018-09-15T00:18:02.586Z,15.53
2018-09-15T00:20:31.014Z,15.54
2018-09-15T00:22:59.420Z,15.56
2018-09-15T00:25:27.838Z,15.55
2018-09-15T00:27:56.215Z,15.57
2018-09-15T00:30:24.699Z,15.58
2018-09-15T00:32:53.918Z,15.59
2018-09-15T00:35:22.294Z,15.59
2018-09-15T00:37:50.862Z,15.60
2018-09-15T00:40:19.271Z,15.61
2018-09-15T00:42:47.858Z,15.60
2018-09-15T00:45:16.279Z,15.59
2018-09-15T00:47:44.693Z,15.58
2018-09-15T00:50:13.096Z,15.53
2018-09-15T00:52:41.653Z,15.46
2018-09-15T00:55:10.106Z,15.43
2018-09-15T00:57:38.513Z,15.40
2018-09-15T01:00:07.847Z,15.39
2018-09-15T01:02:36.541Z,15.39
2018-09-15T01:05:05.324Z,15.41
2018-09-15T01:07:33.772Z,15.41
2018-09-15T01:10:02.291Z,15.41
2018-09-15T01:12:30.701Z,15.40
2018-09-15T01:14:59.086Z,15.39
2018-09-15T01:17:27.525Z,15.36
2018-09-15T01:19:55.957Z,15.30
2018-09-15T01:22:24.319Z,15.24
2018-09-15T01:24:52.698Z,15.22
2018-09-15T01:27:21.125Z,15.17
2018-09-15T01:29:49.518Z,15.10
2018-09-15T01:32:17.989Z,15.04
2018-09-15T01:34:46.428Z,14.99
2018-09-15T01:37:14.830Z,14.95
2018-09-15T01:39:43.221Z,14.92
2018-09-15T01:42:11.641Z,14.88
2018-09-15T01:44:40.017Z,14.80
2018-09-15T01:47:08.471Z,14.62
2018-09-15T01:49:36.882Z,14.66
2018-09-15T01:52:05.345Z,14.60
2018-09-15T01:54:33.741Z,14.50
2018-09-15T01:57:02.154Z,14.44
2018-09-15T01:59:30.557Z,14.39
2018-09-15T02:01:59.037Z,14.29
2018-09-15T02:04:27.418Z,14.21
2018-09-15T02:06:55.857Z,14.18
2018-09-15T02:09:24.217Z,14.15
2018-09-15T02:11:52.657Z,14.09
2018-09-15T02:14:21.069Z,14.00
2018-09-15T02:16:49.478Z,13.92
2018-09-15T02:19:17.847Z,13.84
2018-09-15T02:21:46.237Z,13.76
2018-09-15T02:24:14.661Z,13.70
2018-09-15T02:26:43.069Z,13.67
2018-09-15T02:29:11.458Z,13.60
2018-09-15T02:31:39.843Z,13.61
2018-09-15T02:34:08.350Z,13.56
2018-09-15T02:36:36.758Z,13.51
2018-09-15T02:39:07.509Z,13.51
2018-09-15T02:41:35.946Z,13.45
2018-09-15T02:44:04.358Z,13.40
2018-09-15T02:46:32.741Z,13.40
2018-09-15T02:49:01.153Z,13.39
2018-09-15T02:51:29.526Z,13.36
2018-09-15T02:53:57.910Z,13.29
2018-09-15T02:56:26.294Z,13.19
2018-09-15T02:58:54.700Z,13.13
2018-09-15T03:01:23.076Z,13.10
2018-09-15T03:03:51.469Z,13.09
2018-09-15T03:06:19.839Z,13.05
2018-09-15T03:08:48.214Z,13.07
2018-09-15T03:11:16.562Z,13.01
2018-09-15T03:13:44.973Z,12.89
2018-09-15T03:16:13.342Z,12.78
2018-09-15T03:18:41.722Z,12.71
2018-09-15T03:21:10.102Z,12.61
2018-09-15T03:23:38.481Z,12.51
2018-09-15T03:26:06.913Z,12.47
2018-09-15T03:28:35.298Z,12.48
2018-09-15T03:31:03.677Z,12.42
2018-09-15T03:33:32.045Z,12.38
2018-09-15T03:36:00.406Z,12.35
2018-09-15T03:38:28.817Z,12.32
2018-09-15T03:40:57.203Z,12.30
2018-09-15T03:43:25.680Z,12.31
2018-09-15T03:45:54.061Z,12.31
2018-09-15T03:48:22.525Z,12.35
2018-09-15T03:50:50.873Z,12.44
2018-09-15T03:53:19.258Z,12.48
2018-09-15T03:55:47.625Z,12.50
2018-09-15T03:58:16.005Z,12.51
2018-09-15T04:00:44.413Z,12.53
2018-09-15T04:03:12.798Z,12.51
2018-09-15T04:05:41.265Z,12.52
2018-09-15T04:08:09.661Z,12.52
2018-09-15T04:10:38.053Z,12.52
2018-09-15T04:13:06.430Z,12.57
2018-09-15T04:15:34.841Z,12.55
2018-09-15T04:18:03.219Z,12.52
2018-09-15T04:20:31.572Z,12.53
2018-09-15T04:22:59.941Z,12.52
2018-09-15T04:25:28.309Z,12.55
2018-09-15T04:27:56.770Z,12.53
2018-09-15T04:30:25.178Z,12.52
2018-09-15T04:32:53.597Z,12.50
2018-09-15T04:35:21.977Z,12.51
2018-09-15T04:37:50.344Z,12.49
2018-09-15T04:40:18.728Z,12.50
2018-09-15T04:42:47.081Z,12.49
2018-09-15T04:45:15.461Z,12.46
2018-09-15T04:47:43.822Z,12.36
2018-09-15T04:50:12.227Z,12.32
2018-09-15T04:52:40.677Z,12.36
2018-09-15T04:55:09.087Z,12.34
2018-09-15T04:57:37.466Z,12.32
2018-09-15T05:00:05.916Z,12.30
2018-09-15T05:02:34.401Z,12.29
2018-09-15T05:05:02.858Z,12.33
2018-09-15T05:07:31.298Z,12.36
2018-09-15T05:09:59.714Z,12.35
2018-09-15T05:12:28.287Z,12.34
2018-09-15T05:14:56.668Z,12.28
2018-09-15T05:17:25.049Z,12.30
2018-09-15T05:19:53.441Z,12.26
2018-09-15T05:22:21.905Z,12.20
2018-09-15T05:24:50.340Z,12.34
2018-09-15T05:27:18.724Z,12.41
2018-09-15T05:29:47.124Z,12.45
2018-09-15T05:32:15.523Z,12.48
2018-09-15T05:34:43.929Z,12.52
2018-09-15T05:37:12.335Z,12.51
2018-09-15T05:39:40.745Z,12.55
2018-09-15T05:42:09.123Z,12.59
2018-09-15T05:44:37.550Z,12.64
2018-09-15T05:47:06.267Z,12.62
2018-09-15T05:49:34.701Z,12.69
2018-09-15T05:52:03.086Z,12.73
2018-09-15T05:54:31.490Z,12.79
2018-09-15T05:56:59.865Z,12.80
2018-09-15T05:59:28.257Z,12.93
2018-09-15T06:01:56.665Z,13.03
2018-09-15T06:04:25.100Z,13.13
2018-09-15T06:06:54.182Z,13.23
2018-09-15T06:09:22.574Z,13.32
2018-09-15T06:11:50.964Z,13.34
2018-09-15T06:14:19.346Z,13.47
2018-09-15T06:16:47.743Z,13.64
2018-09-15T06:19:16.157Z,13.74
2018-09-15T06:21:44.563Z,13.77
2018-09-15T06:24:13.077Z,13.81
2018-09-15T06:26:41.604Z,13.92
2018-09-15T06:29:10.053Z,14.00
2018-09-15T06:31:38.506Z,14.08
2018-09-15T06:34:06.960Z,14.04
2018-09-15T06:36:35.429Z,14.19
2018-09-15T06:39:04.665Z,14.30
2018-09-15T06:41:33.092Z,14.42
2018-09-15T06:44:01.465Z,14.49
2018-09-15T06:46:29.877Z,14.55
2018-09-15T06:48:58.265Z,14.68
2018-09-15T06:51:26.733Z,14.78
2018-09-15T06:53:55.117Z,14.89
2018-09-15T06:56:23.529Z,15.01
2018-09-15T06:58:51.941Z,15.07
2018-09-15T07:01:20.325Z,15.11
2018-09-15T07:03:48.723Z,15.21
2018-09-15T07:06:17.190Z,15.27
2018-09-15T07:08:45.550Z,15.33
2018-09-15T07:11:13.946Z,15.41
2018-09-15T07:13:42.309Z,15.47
2018-09-15T07:16:10.700Z,15.49
2018-09-15T07:18:39.130Z,15.52
2018-09-15T07:21:07.722Z,15.61
2018-09-15T07:23:36.074Z,15.64
2018-09-15T07:26:04.513Z,15.68
2018-09-15T07:28:32.882Z,15.85
2018-09-15T07:31:01.328Z,15.87
2018-09-15T07:33:29.706Z,16.04
2018-09-15T07:35:58.095Z,16.21
2018-09-15T07:38:26.485Z,16.29
2018-09-15T07:40:54.849Z,16.39
2018-09-15T07:43:23.224Z,16.24
2018-09-15T07:45:51.697Z,16.41
2018-09-15T07:48:20.079Z,16.51
2018-09-15T07:50:48.461Z,16.60
2018-09-15T07:53:16.817Z,16.82
2018-09-15T07:55:45.248Z,16.94
2018-09-15T07:58:14.640Z,17.07
2018-09-15T08:00:43.064Z,17.27
2018-09-15T08:03:11.412Z,17.29
2018-09-15T08:05:39.914Z,17.35
2018-09-15T08:08:08.287Z,17.34
2018-09-15T08:10:36.671Z,17.23
2018-09-15T08:13:05.050Z,17.24
2018-09-15T08:15:33.835Z,17.44
2018-09-15T08:18:02.216Z,17.42
2018-09-15T08:20:30.640Z,17.23
2018-09-15T08:22:59.035Z,17.24
2018-09-15T08:25:27.457Z,17.42
2018-09-15T08:27:55.852Z,17.49
2018-09-15T08:30:24.369Z,17.68
2018-09-15T08:32:52.769Z,17.75
2018-09-15T08:35:21.176Z,18.04
2018-09-15T08:37:49.594Z,17.77
2018-09-15T08:40:17.998Z,17.68
2018-09-15T08:42:46.825Z,17.59
2018-09-15T08:45:15.269Z,17.58
2018-09-15T08:47:43.682Z,17.71
2018-09-15T08:50:12.094Z,18.07
2018-09-15T08:52:40.490Z,18.34
2018-09-15T08:55:08.865Z,18.31
2018-09-15T08:57:37.289Z,18.48
2018-09-15T09:00:05.737Z,18.29
2018-09-15T09:02:34.138Z,18.26
2018-09-15T09:05:02.521Z,18.31
2018-09-15T09:07:30.929Z,18.26
2018-09-15T09:09:59.455Z,18.37
2018-09-15T09:12:27.869Z,18.02
2018-09-15T09:14:56.233Z,18.12
2018-09-15T09:17:24.618Z,18.30
2018-09-15T09:19:53.122Z,18.30
2018-09-15T09:22:21.553Z,18.70
2018-09-15T09:24:50.025Z,18.99
2018-09-15T09:27:18.421Z,18.82
2018-09-15T09:29:46.778Z,18.41
2018-09-15T09:32:15.263Z,18.41
2018-09-15T09:34:43.718Z,18.54
2018-09-15T09:37:12.138Z,18.68
2018-09-15T09:39:43.421Z,18.27
2018-09-15T09:42:11.913Z,18.14
2018-09-15T09:44:40.362Z,18.13
2018-09-15T09:47:09.973Z,18.38
2018-09-15T09:49:38.454Z,18.54
2018-09-15T09:52:06.925Z,18.78
2018-09-15T09:54:35.365Z,19.06
2018-09-15T09:57:03.841Z,19.35
2018-09-15T09:59:32.240Z,19.55
2018-09-15T10:02:03.068Z,19.61
2018-09-15T10:04:32.251Z,19.52
2018-09-15T10:07:00.748Z,19.49
2018-09-15T10:09:29.148Z,19.34
2018-09-15T10:11:57.568Z,19.21
2018-09-15T10:14:25.985Z,19.16
2018-09-15T10:16:54.361Z,19.21
2018-09-15T10:19:22.773Z,19.29
2018-09-15T10:21:51.203Z,19.18
2018-09-15T10:24:19.877Z,18.88
2018-09-15T10:26:48.346Z,18.97
2018-09-15T10:29:16.721Z,18.82
2018-09-15T10:31:45.159Z,18.79
2018-09-15T10:34:14.090Z,18.80
2018-09-15T10:36:42.671Z,18.53
2018-09-15T10:39:12.173Z,18.56
2018-09-15T10:48:41.375Z,19.44
2018-09-15T10:51:09.765Z,19.67
2018-09-15T10:53:38.147Z,20.09
2018-09-15T10:56:06.628Z,20.24
2018-09-15T10:58:35.095Z,20.20
2018-09-15T11:01:03.581Z,20.03
2018-09-15T11:03:31.983Z,19.83
2018-09-15T11:06:00.536Z,20.12
2018-09-15T11:08:28.932Z,19.83
2018-09-15T11:10:57.333Z,20.17
2018-09-15T11:13:25.915Z,20.40
2018-09-15T11:15:54.227Z,20.53
2018-09-15T11:18:22.684Z,20.45
2018-09-15T11:20:51.127Z,20.51
2018-09-15T11:23:19.603Z,20.70
2018-09-15T11:25:48.018Z,20.36
2018-09-15T11:28:16.484Z,20.22
2018-09-15T11:30:45.046Z,20.42
2018-09-15T11:33:13.454Z,20.30
2018-09-15T11:35:41.879Z,20.32
2018-09-15T11:38:10.292Z,20.01
2018-09-15T11:40:38.725Z,19.87
2018-09-15T11:43:07.130Z,19.80
2018-09-15T11:45:35.584Z,19.92
2018-09-15T11:48:04.174Z,19.88
2018-09-15T11:50:32.619Z,19.90
2018-09-15T11:53:01.115Z,19.88
2018-09-15T11:55:29.567Z,20.07
2018-09-15T11:57:58.022Z,20.47
2018-09-15T12:00:28.399Z,20.62
2018-09-15T12:02:56.835Z,20.43
2018-09-15T12:05:25.270Z,20.40
2018-09-15T12:07:53.825Z,20.53
2018-09-15T12:10:22.225Z,20.95
2018-09-15T12:12:50.770Z,20.83
2018-09-15T12:15:19.522Z,20.89
2018-09-15T12:17:48.025Z,21.01
2018-09-15T12:20:16.446Z,21.37
2018-09-15T12:22:44.858Z,21.90
2018-09-15T12:25:13.263Z,22.21
2018-09-15T12:27:41.677Z,21.80
2018-09-15T12:30:10.079Z,21.26
2018-09-15T12:32:38.481Z,21.26
2018-09-15T12:35:06.971Z,21.22
2018-09-15T12:37:35.366Z,20.86
2018-09-15T12:40:03.906Z,20.89
2018-09-15T12:42:32.295Z,20.71
2018-09-15T12:45:00.897Z,20.96
2018-09-15T12:47:29.217Z,21.21
2018-09-15T12:50:00.982Z,21.60
2018-09-15T12:52:29.422Z,22.08
2018-09-15T12:54:57.854Z,21.78
2018-09-15T12:57:26.255Z,21.53
2018-09-15T12:59:54.686Z,21.43
2018-09-15T13:02:23.103Z,21.18
2018-09-15T13:04:51.588Z,21.12
2018-09-15T13:07:20.056Z,21.03
2018-09-15T13:09:48.473Z,20.95
2018-09-15T13:12:16.954Z,20.78
2018-09-15T13:14:45.409Z,20.77
2018-09-15T13:17:13.814Z,20.78
2018-09-15T13:19:42.266Z,20.91
2018-09-15T13:22:10.745Z,20.94
2018-09-15T13:24:39.179Z,20.82
2018-09-15T13:27:08.141Z,20.93
2018-09-15T13:29:36.636Z,20.98
2018-09-15T13:32:05.223Z,20.89
2018-09-15T13:34:34.074Z,20.86
2018-09-15T13:37:02.709Z,20.79
2018-09-15T13:39:31.121Z,20.85
2018-09-15T13:41:59.503Z,20.82
2018-09-15T13:44:27.906Z,20.76
2018-09-15T13:46:57.349Z,20.69
2018-09-15T13:49:25.738Z,20.69
2018-09-15T13:51:54.122Z,20.80
2018-09-15T13:54:22.559Z,20.95
2018-09-15T13:56:51.720Z,21.23
2018-09-15T13:59:20.095Z,21.93
2018-09-15T14:01:48.552Z,21.45
2018-09-15T14:04:16.988Z,21.11
2018-09-15T14:06:45.389Z,21.10
2018-09-15T14:09:13.816Z,20.64
2018-09-15T14:11:42.246Z,20.76
2018-09-15T14:14:10.625Z,20.76
2018-09-15T14:16:39.076Z,20.94
2018-09-15T14:19:07.499Z,20.99
2018-09-15T14:21:35.949Z,21.08
2018-09-15T14:24:04.503Z,21.14
2018-09-15T14:26:32.906Z,21.05
2018-09-15T14:29:01.302Z,20.82
2018-09-15T14:31:29.702Z,20.86
2018-09-15T14:33:58.124Z,20.90
2018-09-15T14:36:26.538Z,20.80
2018-09-15T14:38:54.965Z,20.84
2018-09-15T14:41:23.374Z,20.73
2018-09-15T14:43:51.783Z,20.54
2018-09-15T14:46:20.197Z,20.44
2018-09-15T14:48:48.729Z,20.49
2018-09-15T14:51:17.124Z,20.48
2018-09-15T14:53:45.522Z,20.54
2018-09-15T14:56:13.946Z,20.51
2018-09-15T14:58:42.323Z,20.42
2018-09-15T15:01:10.698Z,20.49
2018-09-15T15:03:40.867Z,20.56
2018-09-15T15:06:09.441Z,20.65
2018-09-15T15:08:37.810Z,20.72
2018-09-15T15:11:06.189Z,20.72
2018-09-15T15:13:34.681Z,20.84
2018-09-15T15:16:03.033Z,21.01
2018-09-15T15:18:31.507Z,21.14
2018-09-15T15:20:59.940Z,21.16
2018-09-15T15:23:28.434Z,21.05
2018-09-15T15:25:56.872Z,20.98
2018-09-15T15:28:25.451Z,20.87
2018-09-15T15:30:53.914Z,20.79
2018-09-15T15:33:22.315Z,20.81
2018-09-15T15:35:50.718Z,20.79
2018-09-15T15:38:19.129Z,20.95
2018-09-15T15:40:47.553Z,21.05
2018-09-15T15:43:16.080Z,21.06
2018-09-15T15:45:44.800Z,21.08
2018-09-15T15:48:13.187Z,21.28
2018-09-15T15:50:41.833Z,21.16
2018-09-15T15:53:10.242Z,21.00
2018-09-15T15:55:39.048Z,20.92
2018-09-15T15:58:07.500Z,20.92
2018-09-15T16:00:35.868Z,20.96
2018-09-15T16:03:04.261Z,21.01
2018-09-15T16:05:32.721Z,20.88
2018-09-15T16:08:01.151Z,20.73
2018-09-15T16:10:29.543Z,20.78
2018-09-15T16:12:57.954Z,20.85
2018-09-15T16:15:26.356Z,20.87
2018-09-15T16:17:54.742Z,20.94
2018-09-15T16:20:23.165Z,20.82
2018-09-15T16:22:51.601Z,20.61
2018-09-15T16:25:19.981Z,20.49
2018-09-15T16:27:49.004Z,20.47
2018-09-15T16:30:17.381Z,20.40
2018-09-15T16:32:45.862Z,20.36
2018-09-15T16:35:14.273Z,20.19
2018-09-15T16:37:43.018Z,20.07
2018-09-15T16:40:11.427Z,20.09
2018-09-15T16:42:39.907Z,20.06
2018-09-15T16:45:08.323Z,20.04
2018-09-15T16:47:36.809Z,20.00
2018-09-15T16:50:05.332Z,20.01
2018-09-15T16:52:33.761Z,19.94
2018-09-15T16:55:02.247Z,19.88
2018-09-15T16:57:30.753Z,19.82
2018-09-15T16:59:59.177Z,19.74
2018-09-15T17:02:27.928Z,19.71
2018-09-15T17:04:56.380Z,19.66
2018-09-15T17:07:25.841Z,19.53
2018-09-15T17:09:54.330Z,19.55
2018-09-15T17:12:22.790Z,19.44
2018-09-15T17:14:51.256Z,19.29
2018-09-15T17:17:19.718Z,19.16
2018-09-15T17:19:48.232Z,18.86
2018-09-15T17:22:16.702Z,18.63
2018-09-15T17:24:45.152Z,18.57
2018-09-15T17:27:13.629Z,18.50
2018-09-15T17:29:42.237Z,18.32
2018-09-15T17:32:10.985Z,18.16
2018-09-15T17:34:39.437Z,17.96
2018-09-15T17:37:08.045Z,17.85
2018-09-15T17:39:36.710Z,17.74
2018-09-15T17:42:05.183Z,17.57
2018-09-15T17:44:33.682Z,17.39
2018-09-15T17:47:02.136Z,17.28
2018-09-15T17:49:30.590Z,17.21
2018-09-15T17:51:59.026Z,17.10
2018-09-15T17:54:27.543Z,16.98
2018-09-15T17:56:55.975Z,16.91
2018-09-15T17:59:24.433Z,16.78
2018-09-15T18:01:52.893Z,16.79
2018-09-15T18:04:21.466Z,16.71
2018-09-15T18:06:50.014Z,16.62
2018-09-15T18:09:18.564Z,16.55
2018-09-15T18:11:48.086Z,16.52
2018-09-15T18:14:16.508Z,16.44
2018-09-15T18:16:44.907Z,16.40
2018-09-15T18:19:13.412Z,16.38
2018-09-15T18:21:41.909Z,16.34
2018-09-15T18:24:10.349Z,16.26
2018-09-15T18:26:38.901Z,16.22
2018-09-15T18:29:07.402Z,16.27
2018-09-15T18:31:35.918Z,16.09
2018-09-15T18:34:04.398Z,16.12
2018-09-15T18:36:32.850Z,16.04
2018-09-15T18:39:01.293Z,15.98
2018-09-15T18:41:30.727Z,15.88
2018-09-15T18:43:59.252Z,15.88
2018-09-15T18:46:27.715Z,15.78
2018-09-15T18:48:56.210Z,15.77
2018-09-15T18:51:24.705Z,15.74
2018-09-15T18:53:53.197Z,15.72
2018-09-15T18:56:21.761Z,15.74
2018-09-15T18:58:50.300Z,15.57
2018-09-15T19:08:18.762Z,15.52
2018-09-15T19:10:47.598Z,15.46
2018-09-15T19:13:16.149Z,15.43
2018-09-15T19:15:44.902Z,15.29
2018-09-15T19:18:13.758Z,15.16
2018-09-15T19:20:42.289Z,15.01
2018-09-15T19:23:11.484Z,14.93
2018-09-15T19:25:40.118Z,15.05
2018-09-15T19:28:09.082Z,15.07
2018-09-15T19:30:37.848Z,15.01
2018-09-15T19:33:06.374Z,14.95
2018-09-15T19:35:35.342Z,15.01
2018-09-15T19:38:03.805Z,14.94
2018-09-15T19:40:32.284Z,14.82
2018-09-15T19:43:00.882Z,14.80
2018-09-15T19:45:29.590Z,14.70
2018-09-15T19:47:58.315Z,14.75
2018-09-15T19:50:26.806Z,14.85
2018-09-15T19:52:55.290Z,14.83
2018-09-15T19:55:24.511Z,14.84
2018-09-15T19:57:53.231Z,14.72
2018-09-15T20:00:21.748Z,14.79
2018-09-15T20:02:50.235Z,14.67
2018-09-15T20:05:19.932Z,14.68
2018-09-15T20:07:48.439Z,14.54
2018-09-15T20:10:17.030Z,14.40
2018-09-15T20:12:45.606Z,14.15
2018-09-15T20:15:27.333Z,14.02
2018-09-15T20:17:54.713Z,14.01
2018-09-15T20:20:22.831Z,13.93
2018-09-15T20:22:52.843Z,13.89
2018-09-15T20:25:21.322Z,13.87
2018-09-15T20:27:49.883Z,13.90
2018-09-15T20:30:18.484Z,13.83
2018-09-15T20:32:47.058Z,13.86
2018-09-15T20:35:15.949Z,13.81
2018-09-15T20:37:44.509Z,13.75
2018-09-15T20:40:13.082Z,13.68
2018-09-15T20:42:41.543Z,13.62
2018-09-15T20:45:11.088Z,13.54
2018-09-15T20:47:39.770Z,13.29
2018-09-15T20:50:08.774Z,13.44
2018-09-15T20:52:37.301Z,13.37
2018-09-15T20:55:06.223Z,13.27
2018-09-15T20:57:35.012Z,13.18
2018-09-15T21:00:03.606Z,13.14
2018-09-15T21:02:32.082Z,13.18
2018-09-15T21:05:00.596Z,13.15
2018-09-15T21:07:29.120Z,13.17
2018-09-15T21:09:57.857Z,13.22
2018-09-15T21:12:26.302Z,13.32
2018-09-15T21:14:54.926Z,13.27
2018-09-15T21:17:23.652Z,13.08
2018-09-15T21:19:52.202Z,13.06
2018-09-15T21:22:20.629Z,12.93
2018-09-15T21:24:49.180Z,12.78
2018-09-15T21:27:17.656Z,12.72
2018-09-15T21:29:46.109Z,12.59
2018-09-15T21:32:14.560Z,12.58
2018-09-15T21:34:43.056Z,12.60
2018-09-15T21:37:11.605Z,12.59
2018-09-15T21:39:40.866Z,12.59
2018-09-15T21:42:09.408Z,12.65
2018-09-15T21:44:37.896Z,12.76
2018-09-15T21:47:06.620Z,12.73
2018-09-15T21:49:35.150Z,12.68
2018-09-15T21:52:03.793Z,12.72
2018-09-15T21:54:32.322Z,12.66
2018-09-15T21:57:00.789Z,12.60
2018-09-15T21:59:29.380Z,12.45
2018-09-15T22:01:58.042Z,12.46
2018-09-15T22:04:26.592Z,12.47
2018-09-15T22:06:55.182Z,12.28
2018-09-15T22:09:24.171Z,12.03
2018-09-15T22:11:53.107Z,11.91
2018-09-15T22:14:21.652Z,11.80
2018-09-15T22:16:50.190Z,11.79
2018-09-15T22:19:18.777Z,11.77
2018-09-15T22:21:47.227Z,11.79
2018-09-15T22:24:16.043Z,11.92
2018-09-15T22:26:44.590Z,12.00
2018-09-15T22:29:13.189Z,11.92
2018-09-15T22:31:48.456Z,11.93
2018-09-15T22:34:16.970Z,12.00
2018-09-15T22:36:45.403Z,12.00
2018-09-15T22:39:13.844Z,11.88
2018-09-15T22:41:42.237Z,11.81
2018-09-15T22:44:10.720Z,11.75
2018-09-15T22:46:39.138Z,11.65
2018-09-15T22:49:07.625Z,11.58
2018-09-15T22:51:36.169Z,11.58
2018-09-15T22:54:04.652Z,11.51
2018-09-15T22:56:33.082Z,11.54
2018-09-15T22:59:01.482Z,11.47
2018-09-15T23:01:29.877Z,11.52
2018-09-15T23:04:06.150Z,11.50
2018-09-15T23:06:34.866Z,11.44
2018-09-15T23:09:03.343Z,11.33
2018-09-15T23:11:31.785Z,11.33
2018-09-15T23:14:00.197Z,11.28
2018-09-15T23:16:28.617Z,11.22
2018-09-15T23:18:57.054Z,11.17
2018-09-15T23:21:25.425Z,11.10
2018-09-15T23:23:53.860Z,11.09
2018-09-15T23:26:22.314Z,11.01
2018-09-15T23:28:50.906Z,10.97
2018-09-15T23:31:19.961Z,10.98
2018-09-15T23:33:48.364Z,10.95
2018-09-15T23:36:16.785Z,11.08
2018-09-15T23:38:45.197Z,11.07
2018-09-15T23:41:13.685Z,11.00
2018-09-15T23:43:42.057Z,10.98
2018-09-15T23:46:10.965Z,10.94
2018-09-15T23:48:39.354Z,10.87
2018-09-15T23:51:07.769Z,10.85
2018-09-15T23:53:36.150Z,10.96
2018-09-15T23:56:04.578Z,10.91
2018-09-15T23:58:32.989Z,10.98
